createdAt,value
2019-03-25T00:00:42.123Z,66.53
2019-03-25T00:03:10.533Z,60.13
2019-03-25T00:05:38.960Z,60.53
2019-03-25T00:08:07.385Z,68.77
2019-03-25T00:10:41.764Z,70.67
2019-03-25T00:13:10.222Z,60.77
2019-03-25T00:15:38.750Z,65.47
2019-03-25T00:18:07.262Z,69.57
2019-03-25T00:20:35.724Z,68.20
2019-03-25T00:23:04.121Z,67.63
2019-03-25T00:25:32.802Z,70.00
2019-03-25T00:28:01.249Z,73.87
2019-03-25T00:30:29.653Z,68.30
2019-03-25T00:32:58.111Z,65.10
2019-03-25T00:35:26.613Z,64.90
2019-03-25T00:37:55.129Z,68.77
2019-03-25T00:40:23.583Z,60.77
2019-03-25T00:42:51.997Z,59.77
2019-03-25T00:45:20.441Z,70.93
2019-03-25T00:47:48.908Z,64.20
2019-03-25T00:50:17.700Z,63.20
2019-03-25T00:52:46.154Z,64.83
2019-03-25T00:55:14.898Z,67.87
2019-03-25T00:57:43.297Z,60.80
2019-03-25T01:00:12.107Z,65.43
2019-03-25T01:02:40.561Z,75.70
2019-03-25T01:05:09.229Z,75.07
2019-03-25T01:07:37.637Z,61.63
2019-03-25T01:10:08.321Z,67.60
2019-03-25T01:12:36.731Z,77.73
2019-03-25T01:15:06.985Z,68.57
2019-03-25T01:17:35.393Z,65.40
2019-03-25T01:20:06.255Z,70.00
2019-03-25T01:22:34.809Z,76.93
2019-03-25T01:25:03.433Z,64.40
2019-03-25T01:27:31.858Z,69.33
2019-03-25T01:30:00.342Z,66.83
2019-03-25T01:32:28.791Z,68.13
2019-03-25T01:34:57.253Z,68.40
2019-03-25T01:37:25.730Z,66.40
2019-03-25T01:39:54.213Z,67.00
2019-03-25T01:42:22.659Z,69.60
2019-03-25T01:44:51.091Z,71.47
2019-03-25T01:47:19.582Z,74.50
2019-03-25T01:49:48.005Z,73.43
2019-03-25T01:52:16.457Z,64.70
2019-03-25T01:54:44.877Z,68.07
2019-03-25T01:57:13.321Z,74.17
2019-03-25T01:59:41.734Z,71.23
2019-03-25T02:02:10.174Z,69.77
2019-03-25T02:04:38.622Z,69.60
2019-03-25T02:07:07.069Z,70.77
2019-03-25T02:09:35.470Z,72.90
2019-03-25T02:12:03.933Z,69.90
2019-03-25T02:14:32.347Z,65.70
2019-03-25T02:17:00.761Z,69.87
2019-03-25T02:19:29.177Z,65.07
2019-03-25T02:21:57.695Z,68.70
2019-03-25T02:24:26.097Z,65.93
2019-03-25T02:26:54.543Z,72.20
2019-03-25T02:29:23.033Z,73.60
2019-03-25T02:31:51.438Z,62.40
2019-03-25T02:34:19.850Z,73.80
2019-03-25T02:36:48.258Z,73.90
2019-03-25T02:39:16.670Z,65.20
2019-03-25T02:41:45.079Z,65.30
2019-03-25T02:44:13.490Z,71.30
2019-03-25T02:46:41.909Z,73.73
2019-03-25T02:49:10.386Z,71.67
2019-03-25T02:51:38.825Z,72.60
2019-03-25T02:54:07.345Z,80.85
2019-03-25T02:56:35.763Z,64.00
2019-03-25T02:59:04.187Z,76.17
2019-03-25T03:01:32.628Z,64.87
2019-03-25T03:04:01.030Z,71.60
2019-03-25T03:06:29.445Z,66.13
2019-03-25T03:08:57.862Z,67.93
2019-03-25T03:11:26.396Z,67.17
2019-03-25T03:13:54.871Z,61.70
2019-03-25T03:16:23.307Z,74.20
2019-03-25T03:18:51.781Z,74.53
2019-03-25T03:21:20.515Z,71.25
2019-03-25T03:23:48.941Z,81.67
2019-03-25T03:26:17.360Z,70.67
2019-03-25T03:28:46.055Z,82.50
2019-03-25T03:31:14.530Z,71.60
2019-03-25T03:33:43.082Z,68.67
2019-03-25T03:36:11.574Z,74.90
2019-03-25T03:38:39.997Z,69.33
2019-03-25T03:41:08.413Z,69.53
2019-03-25T03:43:36.835Z,72.13
2019-03-25T03:46:05.270Z,72.73
2019-03-25T03:48:33.676Z,79.63
2019-03-25T03:51:02.158Z,74.43
2019-03-25T03:53:30.610Z,73.93
2019-03-25T03:56:12.951Z,78.23
2019-03-25T03:58:31.950Z,75.23
2019-03-25T04:01:00.367Z,70.93
2019-03-25T04:03:28.790Z,70.90
2019-03-25T04:05:57.201Z,68.87
2019-03-25T04:08:25.614Z,62.27
2019-03-25T04:10:54.039Z,65.33
2019-03-25T04:13:22.471Z,60.00
2019-03-25T04:15:50.887Z,64.10
2019-03-25T04:18:19.312Z,57.47
2019-03-25T04:20:47.738Z,55.20
2019-03-25T04:23:16.159Z,56.23
2019-03-25T04:25:44.610Z,50.00
2019-03-25T04:28:13.467Z,46.70
2019-03-25T04:30:41.866Z,46.17
2019-03-25T04:33:10.285Z,51.75
2019-03-25T04:35:38.725Z,47.40
2019-03-25T04:38:07.162Z,45.70
2019-03-25T04:40:35.606Z,39.58
2019-03-25T04:43:04.035Z,36.48
2019-03-25T04:45:32.555Z,35.63
2019-03-25T04:48:01.074Z,35.68
2019-03-25T04:50:29.493Z,35.60
2019-03-25T04:52:57.922Z,32.95
2019-03-25T04:55:26.370Z,32.43
2019-03-25T04:57:54.804Z,29.92
2019-03-25T05:00:32.410Z,29.87
2019-03-25T05:03:00.834Z,29.60
2019-03-25T05:05:29.269Z,30.97
2019-03-25T05:07:57.757Z,38.10
2019-03-25T05:10:26.201Z,29.00
2019-03-25T05:12:54.630Z,30.25
2019-03-25T05:15:23.095Z,27.20
2019-03-25T05:17:51.529Z,28.12
2019-03-25T05:20:19.980Z,24.65
2019-03-25T05:22:48.398Z,31.48
2019-03-25T05:25:16.820Z,28.35
2019-03-25T05:27:45.226Z,24.80
2019-03-25T05:30:14.093Z,25.68
2019-03-25T05:32:42.773Z,28.57
2019-03-25T05:35:11.341Z,27.50
2019-03-25T05:37:39.756Z,23.80
2019-03-25T05:40:08.623Z,25.85
2019-03-25T05:42:37.047Z,27.70
2019-03-25T05:45:07.141Z,24.43
2019-03-25T05:47:35.574Z,22.58
2019-03-25T05:50:08.875Z,25.08
2019-03-25T05:52:36.544Z,30.57
2019-03-25T05:55:06.901Z,23.47
2019-03-25T05:57:35.320Z,22.32
2019-03-25T06:00:04.205Z,20.25
2019-03-25T06:02:32.639Z,23.00
2019-03-25T06:05:01.081Z,23.80
2019-03-25T06:07:29.542Z,22.90
2019-03-25T06:09:58.051Z,18.92
2019-03-25T06:12:26.477Z,21.70
2019-03-25T06:14:54.933Z,19.55
2019-03-25T06:17:23.359Z,19.20
2019-03-25T06:19:51.821Z,19.73
2019-03-25T06:22:20.229Z,20.00
2019-03-25T06:24:48.823Z,31.05
2019-03-25T06:27:17.237Z,27.82
2019-03-25T06:29:45.668Z,23.85
2019-03-25T06:32:14.087Z,20.23
2019-03-25T06:34:42.501Z,24.35
2019-03-25T06:37:10.967Z,20.10
2019-03-25T06:39:39.377Z,20.50
2019-03-25T06:42:07.810Z,21.77
2019-03-25T06:44:36.549Z,16.17
2019-03-25T06:47:04.997Z,19.73
2019-03-25T06:49:33.394Z,22.62
2019-03-25T06:52:01.863Z,18.20
2019-03-25T06:54:30.314Z,18.70
2019-03-25T06:56:58.732Z,16.65
2019-03-25T06:59:27.141Z,19.12
2019-03-25T07:01:55.585Z,18.15
2019-03-25T07:04:24.030Z,18.45
2019-03-25T07:06:52.446Z,14.43
2019-03-25T07:09:20.861Z,19.20
2019-03-25T07:11:49.682Z,18.23
2019-03-25T07:14:18.181Z,13.10
2019-03-25T07:16:46.580Z,10.47
2019-03-25T07:19:15.022Z,16.60
2019-03-25T07:21:43.429Z,17.20
2019-03-25T07:24:11.857Z,13.53
2019-03-25T07:26:40.262Z,19.83
2019-03-25T07:29:08.719Z,20.10
2019-03-25T07:31:37.642Z,16.50
2019-03-25T07:34:06.057Z,14.63
2019-03-25T07:36:34.473Z,12.70
2019-03-25T07:39:03.384Z,11.60
2019-03-25T07:41:31.802Z,16.70
2019-03-25T07:44:00.242Z,14.60
2019-03-25T07:46:28.659Z,12.70
2019-03-25T07:48:57.150Z,11.27
2019-03-25T07:51:25.553Z,14.50
2019-03-25T07:53:53.978Z,14.23
2019-03-25T07:56:41.838Z,11.57
2019-03-25T07:59:10.320Z,12.77
2019-03-25T08:01:38.752Z,14.70
2019-03-25T08:04:07.216Z,1593.70
2019-03-25T08:06:35.748Z,716.47
2019-03-25T08:09:05.167Z,1817.90
2019-03-25T08:11:33.572Z,511.40
2019-03-25T08:14:02.018Z,1999.90
2019-03-25T08:16:30.433Z,109.00
2019-03-25T08:18:58.876Z,1999.90
2019-03-25T08:21:27.306Z,1542.93
2019-03-25T08:23:55.750Z,1466.07
2019-03-25T08:26:24.165Z,1007.97
2019-03-25T08:28:52.609Z,916.47
2019-03-25T08:31:21.057Z,1510.63
2019-03-25T08:33:49.545Z,735.20
2019-03-25T08:36:17.967Z,496.70
2019-03-25T08:38:46.418Z,84.57
2019-03-25T08:41:14.833Z,1376.33
2019-03-25T08:43:43.271Z,1999.90
2019-03-25T08:46:11.698Z,1589.47
2019-03-25T08:48:40.132Z,1999.90
2019-03-25T08:51:08.579Z,558.27
2019-03-25T08:53:37.094Z,204.37
2019-03-25T08:56:05.591Z,1346.63
2019-03-25T08:58:34.136Z,1999.90
2019-03-25T09:01:02.613Z,1999.90
2019-03-25T09:03:31.045Z,314.13
2019-03-25T09:05:59.660Z,1999.90
2019-03-25T09:08:28.189Z,994.47
2019-03-25T09:10:56.609Z,1319.37
2019-03-25T09:13:25.192Z,914.57
2019-03-25T09:15:53.942Z,1115.15
2019-03-25T09:18:22.387Z,575.38
2019-03-25T09:20:50.861Z,1430.77
2019-03-25T09:23:19.305Z,1999.90
2019-03-25T09:25:47.745Z,1045.45
2019-03-25T09:28:24.322Z,949.35
2019-03-25T09:30:55.369Z,1059.15
2019-03-25T09:33:24.000Z,1999.90
2019-03-25T09:35:52.934Z,25.13
2019-03-25T09:38:21.458Z,369.20
2019-03-25T09:40:49.973Z,786.33
2019-03-25T09:43:18.462Z,22.47
2019-03-25T09:45:46.935Z,1999.90
2019-03-25T09:48:15.349Z,947.10
2019-03-25T09:50:43.807Z,1999.90
2019-03-25T09:53:12.237Z,12.60
2019-03-25T09:55:40.661Z,41.60
2019-03-25T09:58:09.089Z,14.30
2019-03-25T10:00:37.521Z,13.30
2019-03-25T10:03:05.938Z,13.37
2019-03-25T10:05:34.439Z,21.30
2019-03-25T10:08:02.917Z,19.13
2019-03-25T10:10:31.365Z,18.20
2019-03-25T10:12:59.775Z,14.20
2019-03-25T10:15:28.194Z,32.77
2019-03-25T10:17:56.602Z,20.50
2019-03-25T10:20:25.074Z,13.63
2019-03-25T10:22:53.518Z,14.07
2019-03-25T10:25:21.970Z,11.43
2019-03-25T10:27:50.367Z,12.87
2019-03-25T10:30:19.246Z,13.10
2019-03-25T10:32:47.677Z,13.27
2019-03-25T10:35:16.180Z,33.33
2019-03-25T10:37:44.656Z,16.67
2019-03-25T10:40:14.242Z,23.90
2019-03-25T10:42:42.721Z,13.93
2019-03-25T10:45:11.593Z,12.43
2019-03-25T10:47:40.091Z,13.73
2019-03-25T10:50:09.297Z,22.27
2019-03-25T10:52:37.699Z,20.33
2019-03-25T10:55:07.886Z,14.07
2019-03-25T10:57:36.634Z,12.70
2019-03-25T11:00:09.586Z,11.30
2019-03-25T11:02:38.010Z,13.20
2019-03-25T11:05:07.372Z,18.00
2019-03-25T11:07:35.940Z,15.63
2019-03-25T11:10:07.885Z,19.80
2019-03-25T11:12:36.306Z,17.37
2019-03-25T11:15:08.881Z,105.47
2019-03-25T11:17:37.688Z,195.53
2019-03-25T11:20:10.798Z,1999.90
2019-03-25T11:22:39.337Z,45.78
2019-03-25T11:25:08.428Z,536.13
2019-03-25T11:27:36.889Z,886.00
2019-03-25T11:30:08.011Z,1999.90
2019-03-25T11:32:36.440Z,1999.90
2019-03-25T11:35:06.901Z,1032.10
2019-03-25T11:37:35.349Z,1054.87
2019-03-25T11:40:06.722Z,760.80
2019-03-25T11:42:35.187Z,104.20
2019-03-25T11:45:05.893Z,137.80
2019-03-25T11:47:34.333Z,993.00
2019-03-25T11:50:03.181Z,904.43
2019-03-25T11:52:32.020Z,759.03
2019-03-25T11:55:00.556Z,804.30
2019-03-25T11:57:29.123Z,1999.90
2019-03-25T11:59:57.693Z,1999.90
2019-03-25T12:02:26.139Z,1999.90
2019-03-25T12:04:54.576Z,1409.30
2019-03-25T12:07:23.054Z,234.47
2019-03-25T12:09:51.536Z,90.45
2019-03-25T12:12:19.980Z,6.47
2019-03-25T12:14:48.516Z,7.50
2019-03-25T12:17:16.945Z,8.35
2019-03-25T12:19:45.386Z,4.10
2019-03-25T12:22:13.822Z,6.08
2019-03-25T12:24:42.229Z,6.10
2019-03-25T12:27:10.673Z,4.70
2019-03-25T12:29:39.098Z,7.37
2019-03-25T12:32:07.779Z,5.92
2019-03-25T12:34:36.217Z,4.30
2019-03-25T12:37:04.645Z,4.35
2019-03-25T12:39:33.074Z,8.70
2019-03-25T12:42:01.549Z,3.55
2019-03-25T12:44:30.050Z,16.65
2019-03-25T12:47:17.831Z,11.57
2019-03-25T12:49:46.325Z,31.90
2019-03-25T12:52:14.773Z,4.05
2019-03-25T12:54:43.207Z,6.33
2019-03-25T12:57:11.613Z,4.95
2019-03-25T12:59:41.520Z,4.03
2019-03-25T13:02:10.259Z,5.00
2019-03-25T13:04:38.718Z,6.20
2019-03-25T13:07:07.237Z,5.47
2019-03-25T13:09:35.692Z,4.30
2019-03-25T13:12:04.233Z,10.23
2019-03-25T13:14:35.013Z,3.62
2019-03-25T13:17:02.849Z,3.55
2019-03-25T13:19:31.333Z,4.07
2019-03-25T13:21:59.921Z,5.85
2019-03-25T13:24:28.435Z,6.28
2019-03-25T13:26:56.875Z,10.98
2019-03-25T13:29:25.397Z,4.60
2019-03-25T13:31:53.836Z,6.33
2019-03-25T13:34:22.359Z,7.55
2019-03-25T13:36:50.851Z,4.78
2019-03-25T13:39:19.345Z,5.78
2019-03-25T13:41:47.769Z,6.15
2019-03-25T13:44:16.206Z,3.25
2019-03-25T13:46:44.709Z,7.03
2019-03-25T13:49:13.182Z,5.37
2019-03-25T13:51:41.912Z,8.55
2019-03-25T13:54:10.425Z,6.80
2019-03-25T13:56:38.844Z,8.93
2019-03-25T13:59:07.476Z,4.92
2019-03-25T14:01:35.883Z,5.45
2019-03-25T14:04:04.417Z,3.58
2019-03-25T14:06:32.810Z,5.67
2019-03-25T14:09:01.269Z,4.80
2019-03-25T14:11:32.429Z,6.17
2019-03-25T14:14:00.914Z,22.50
2019-03-25T14:16:29.385Z,7.60
2019-03-25T14:18:57.853Z,4.40
2019-03-25T14:21:26.253Z,2.62
2019-03-25T14:23:54.672Z,2.50
2019-03-25T14:26:23.138Z,3.35
2019-03-25T14:28:51.573Z,2.75
2019-03-25T14:31:20.047Z,1.50
2019-03-25T14:33:48.509Z,2.55
2019-03-25T14:36:17.084Z,2.92
2019-03-25T14:38:45.498Z,4.20
2019-03-25T14:41:14.061Z,16.65
2019-03-25T14:43:42.821Z,2.17
2019-03-25T14:46:11.301Z,4.58
2019-03-25T14:48:39.701Z,4.85
2019-03-25T14:51:08.161Z,3.12
2019-03-25T14:53:44.770Z,4.65
2019-03-25T14:56:06.781Z,5.53
2019-03-25T14:58:35.267Z,4.55
2019-03-25T15:01:04.060Z,5.17
2019-03-25T15:03:32.481Z,6.35
2019-03-25T15:06:00.914Z,4.28
2019-03-25T15:08:29.751Z,5.30
2019-03-25T15:10:58.220Z,4.50
2019-03-25T15:13:26.761Z,4.17
2019-03-25T15:15:55.287Z,3.55
2019-03-25T15:18:23.706Z,3.65
2019-03-25T15:20:52.214Z,5.28
2019-03-25T15:23:20.644Z,4.55
2019-03-25T15:25:49.129Z,4.87
2019-03-25T15:28:17.583Z,4.90
2019-03-25T15:30:46.010Z,3.77
2019-03-25T15:33:14.417Z,4.62
2019-03-25T15:35:42.884Z,3.25
2019-03-25T15:38:11.351Z,2.95
2019-03-25T15:40:40.315Z,6.30
2019-03-25T15:43:10.253Z,4.08
2019-03-25T15:45:38.741Z,5.42
2019-03-25T15:48:07.210Z,5.12
2019-03-25T15:50:35.756Z,3.72
2019-03-25T15:53:04.696Z,4.40
2019-03-25T15:55:33.146Z,4.15
2019-03-25T15:58:01.557Z,3.65
2019-03-25T16:00:29.957Z,6.05
2019-03-25T16:02:58.381Z,2.90
2019-03-25T16:05:26.856Z,2.72
2019-03-25T16:07:55.377Z,2.60
2019-03-25T16:10:23.975Z,5.08
2019-03-25T16:12:52.405Z,3.15
2019-03-25T16:15:43.058Z,2.55
2019-03-25T16:18:31.086Z,2.75
2019-03-25T16:20:59.834Z,2.77
2019-03-25T16:23:28.250Z,6.85
2019-03-25T16:25:56.670Z,1.87
2019-03-25T16:28:25.077Z,3.10
2019-03-25T16:30:58.757Z,2.55
2019-03-25T16:33:23.653Z,3.20
2019-03-25T16:35:52.063Z,2.62
2019-03-25T16:38:20.507Z,2.10
2019-03-25T16:40:48.940Z,3.05
2019-03-25T16:43:17.376Z,2.75
2019-03-25T16:45:45.799Z,3.85
2019-03-25T16:48:14.257Z,4.05
2019-03-25T16:50:42.743Z,10.20
2019-03-25T16:53:11.223Z,4.83
2019-03-25T16:55:39.676Z,5.15
2019-03-25T16:58:08.126Z,3.00
2019-03-25T17:00:36.647Z,4.00
2019-03-25T17:03:05.122Z,4.65
2019-03-25T17:05:33.825Z,4.37
2019-03-25T17:08:02.376Z,5.75
2019-03-25T17:10:30.809Z,4.72
2019-03-25T17:12:59.276Z,3.15
2019-03-25T17:15:28.107Z,6.28
2019-03-25T17:17:56.553Z,3.40
2019-03-25T17:20:25.067Z,6.37
2019-03-25T17:22:53.566Z,4.75
2019-03-25T17:25:22.027Z,2.33
2019-03-25T17:27:50.479Z,6.55
2019-03-25T17:30:20.532Z,3.22
2019-03-25T17:32:48.989Z,2.00
2019-03-25T17:35:17.470Z,3.70
2019-03-25T17:37:45.894Z,3.65
2019-03-25T17:40:14.621Z,2.12
2019-03-25T17:42:43.168Z,1.60
2019-03-25T17:45:12.240Z,2.05
2019-03-25T17:47:40.656Z,2.72
2019-03-25T17:50:09.505Z,3.25
2019-03-25T17:52:37.988Z,3.12
2019-03-25T17:55:08.394Z,3.08
2019-03-25T17:57:36.846Z,2.75
2019-03-25T18:00:12.711Z,3.25
2019-03-25T18:02:41.111Z,3.15
2019-03-25T18:05:12.493Z,3.17
2019-03-25T18:07:40.926Z,2.98
2019-03-25T18:10:09.846Z,2.25
2019-03-25T18:12:39.262Z,1.57
2019-03-25T18:15:12.061Z,2.85
2019-03-25T18:17:40.530Z,1.82
2019-03-25T18:20:17.979Z,3.95
2019-03-25T18:22:40.024Z,1.25
2019-03-25T18:25:08.777Z,1.32
2019-03-25T18:27:37.318Z,1.98
2019-03-25T18:30:07.665Z,2.20
2019-03-25T18:32:36.137Z,2.02
2019-03-25T18:35:05.897Z,2.65
2019-03-25T18:37:53.679Z,2.12
2019-03-25T18:40:22.092Z,1.20
2019-03-25T18:42:50.694Z,1.77
2019-03-25T18:45:19.150Z,3.47
2019-03-25T18:47:48.150Z,1.82
2019-03-25T18:50:16.646Z,2.47
2019-03-25T18:52:45.383Z,1.57
2019-03-25T18:55:13.865Z,1.60
2019-03-25T18:57:42.406Z,1.60
2019-03-25T19:00:31.824Z,1.10
2019-03-25T19:03:04.058Z,1.70
2019-03-25T19:05:32.747Z,2.98
2019-03-25T19:08:04.346Z,2.15
2019-03-25T19:10:32.928Z,2.27
2019-03-25T19:13:01.446Z,1.90
2019-03-25T19:15:30.351Z,1.70
2019-03-25T19:17:58.882Z,2.45
2019-03-25T19:20:27.494Z,3.47
2019-03-25T19:22:55.930Z,2.47
2019-03-25T19:25:24.388Z,3.12
2019-03-25T19:27:52.887Z,2.00
2019-03-25T19:30:21.341Z,2.47
2019-03-25T19:32:49.815Z,3.30
2019-03-25T19:35:18.313Z,3.47
2019-03-25T19:37:47.164Z,5.50
2019-03-25T19:40:16.248Z,3.22
2019-03-25T19:42:44.745Z,3.90
2019-03-25T19:45:14.470Z,2.77
2019-03-25T19:47:42.977Z,3.12
2019-03-25T19:50:11.932Z,3.17
2019-03-25T19:52:40.471Z,2.92
2019-03-25T19:55:09.397Z,5.65
2019-03-25T19:57:37.838Z,3.05
2019-03-25T20:00:12.170Z,4.87
2019-03-25T20:02:40.611Z,7.80
2019-03-25T20:05:09.334Z,7.37
2019-03-25T20:07:38.320Z,3.35
2019-03-25T20:10:08.433Z,3.10
2019-03-25T20:12:36.892Z,3.42
2019-03-25T20:15:07.097Z,3.85
2019-03-25T20:17:35.580Z,2.98
2019-03-25T20:20:08.630Z,3.85
2019-03-25T20:22:37.119Z,4.75
2019-03-25T20:25:07.075Z,3.92
2019-03-25T20:27:35.692Z,3.40
2019-03-25T20:30:07.959Z,4.62
2019-03-25T20:32:36.442Z,5.92
2019-03-25T20:35:06.101Z,7.17
2019-03-25T20:37:34.652Z,7.33
2019-03-25T20:40:03.764Z,4.55
2019-03-25T20:42:32.381Z,4.05
2019-03-25T20:45:00.840Z,5.25
2019-03-25T20:47:29.534Z,5.17
2019-03-25T20:49:58.263Z,3.60
2019-03-25T20:52:26.717Z,5.00
2019-03-25T20:54:55.201Z,3.95
2019-03-25T20:57:23.648Z,5.03
2019-03-25T20:59:52.085Z,6.25
2019-03-25T21:02:22.462Z,4.70
2019-03-25T21:04:50.890Z,4.95
2019-03-25T21:07:19.370Z,4.05
2019-03-25T21:09:47.862Z,3.87
2019-03-25T21:12:16.398Z,7.37
2019-03-25T21:14:44.891Z,4.33
2019-03-25T21:17:13.377Z,3.33
2019-03-25T21:19:44.755Z,5.08
2019-03-25T21:22:13.258Z,3.87
2019-03-25T21:24:41.818Z,4.67
2019-03-25T21:27:10.317Z,6.08
2019-03-25T21:29:38.801Z,4.05
2019-03-25T21:32:07.287Z,5.25
2019-03-25T21:34:35.733Z,4.40
2019-03-25T21:37:05.668Z,4.08
2019-03-25T21:39:34.333Z,3.40
2019-03-25T21:42:03.139Z,3.00
2019-03-25T21:44:31.686Z,5.87
2019-03-25T21:47:00.269Z,3.00
2019-03-25T21:49:28.790Z,3.52
2019-03-25T21:51:57.354Z,2.67
2019-03-25T21:54:25.921Z,3.10
2019-03-25T21:56:54.447Z,4.35
2019-03-25T21:59:22.997Z,4.58
2019-03-25T22:01:51.460Z,18.15
2019-03-25T22:04:19.928Z,7.75
2019-03-25T22:06:48.375Z,4.40
2019-03-25T22:09:16.818Z,6.17
2019-03-25T22:11:45.319Z,4.37
2019-03-25T22:14:13.823Z,6.15
2019-03-25T22:16:42.612Z,5.70
2019-03-25T22:19:12.299Z,3.77
2019-03-25T22:21:40.741Z,5.42
2019-03-25T22:24:09.138Z,4.33
2019-03-25T22:26:37.626Z,3.62
2019-03-25T22:29:06.144Z,3.92
2019-03-25T22:31:35.318Z,4.17
2019-03-25T22:34:03.723Z,6.15
2019-03-25T22:36:32.149Z,3.80
2019-03-25T22:39:00.561Z,4.03
2019-03-25T22:41:29.026Z,3.50
2019-03-25T22:43:57.851Z,4.08
2019-03-25T22:46:26.299Z,7.20
2019-03-25T22:48:54.762Z,4.08
2019-03-25T22:51:23.197Z,4.65
2019-03-25T22:53:51.597Z,3.55
2019-03-25T22:56:20.119Z,4.35
2019-03-25T22:58:48.570Z,5.58
2019-03-25T23:01:17.182Z,5.28
2019-03-25T23:03:45.577Z,4.40
2019-03-25T23:06:14.390Z,6.83
2019-03-25T23:08:42.814Z,7.10
2019-03-25T23:11:11.225Z,5.20
2019-03-25T23:13:39.649Z,5.50
2019-03-25T23:16:08.077Z,6.75
2019-03-25T23:18:36.493Z,4.80
2019-03-25T23:21:05.069Z,6.60
2019-03-25T23:23:33.470Z,6.78
2019-03-25T23:26:01.965Z,4.72
2019-03-25T23:28:30.442Z,5.15
2019-03-25T23:30:58.892Z,9.98
2019-03-25T23:33:27.373Z,7.37
2019-03-25T23:35:56.321Z,6.12
2019-03-25T23:38:24.785Z,6.55
2019-03-25T23:40:53.238Z,5.75
2019-03-25T23:43:21.674Z,6.28
2019-03-25T23:45:50.091Z,6.40
2019-03-25T23:48:18.521Z,7.05
2019-03-25T23:50:46.979Z,6.45
2019-03-25T23:53:15.428Z,7.67
2019-03-25T23:55:43.957Z,10.35
2019-03-25T23:58:12.375Z,6.15
